Time;durP1;ratioP1;P1;durP2;ratioP2;P2;SDS_P1;SDS_P2;PMS_P1;PMS_P2;Temp;Humidity;BMP_temperature;BMP_pressure;BME280_temperature;BME280_humidity;BME280_pressure;Samples;Min_cycle;Max_cycle;Signal;HPM_P1;HPM_P2
2021/06/22 05:30:35;;;;;;;20.48;10.88;;;;;;;23.68;67.79;99682.42;1739389;76;26896;-66
2021/06/22 05:33:02;;;;;;;26.70;12.47;;;;;;;23.78;67.91;99664.13;1722196;80;27310;-67
2021/06/22 05:35:29;;;;;;;18.52;11.50;;;;;;;23.92;67.96;99672.08;1727303;80;26112;-66
2021/06/22 05:37:55;;;;;;;18.57;10.95;;;;;;;24.02;67.78;99668.39;1720810;80;26006;-66
2021/06/22 05:40:22;;;;;;;22.48;11.80;;;;;;;24.14;67.61;99666.43;1745331;80;27121;-67
2021/06/22 05:42:48;;;;;;;19.25;11.53;;;;;;;24.28;67.34;99672.38;1755119;79;26422;-67
2021/06/22 05:45:15;;;;;;;18.52;10.72;;;;;;;24.39;67.00;99674.96;1704051;81;27382;-67
2021/06/22 05:47:42;;;;;;;19.62;10.35;;;;;;;24.48;66.66;99681.34;1742274;79;25997;-67
2021/06/22 05:50:11;;;;;;;22.17;11.50;;;;;;;24.58;66.31;99672.89;1739471;80;26407;-67
2021/06/22 05:52:37;;;;;;;24.27;11.43;;;;;;;24.67;66.06;99672.38;1704292;81;26470;-67
2021/06/22 05:55:16;;;;;;;15.80;10.05;;;;;;;24.75;65.90;99673.80;1699115;82;26568;-67
2021/06/22 05:57:37;;;;;;;17.37;11.05;;;;;;;24.85;65.77;99678.20;1672463;83;27340;-67
2021/06/22 06:00:06;;;;;;;17.57;10.78;;;;;;;24.98;65.75;99673.63;1694995;82;25832;-68
2021/06/22 06:02:32;;;;;;;;;;;;;;;25.10;65.50;99672.23;1701047;81;25904;-68
2021/06/22 06:04:58;;;;;;;25.20;11.40;;;;;;;25.24;65.30;99678.10;1749189;80;26089;-68
2021/06/22 06:07:24;;;;;;;25.08;10.65;;;;;;;25.35;65.44;99678.11;1730548;80;26278;-69
2021/06/22 06:09:59;;;;;;;23.35;11.65;;;;;;;25.48;64.75;99674.70;1755428;79;27297;-69
2021/06/22 06:12:25;;;;;;;17.95;10.03;;;;;;;25.57;64.39;99669.36;1744341;80;26351;-69
2021/06/22 06:14:52;;;;;;;20.25;10.08;;;;;;;25.67;64.43;99673.13;1715518;81;26626;-68
2021/06/22 06:17:18;;;;;;;22.62;10.28;;;;;;;25.80;64.15;99674.66;1721975;81;26302;-70
2021/06/22 06:19:45;;;;;;;17.75;9.20;;;;;;;25.89;63.39;99676.22;1725072;80;26243;-69
2021/06/22 06:22:11;;;;;;;22.35;9.43;;;;;;;25.96;63.13;99680.25;1718798;80;27307;-69
2021/06/22 06:24:38;;;;;;;28.60;9.98;;;;;;;26.05;62.83;99686.58;1744525;80;26450;-69
2021/06/22 06:27:12;;;;;;;18.00;8.95;;;;;;;26.15;62.85;99677.86;1724166;81;26374;-69
2021/06/22 06:32:01;;;;;;;20.17;8.98;;;;;;;26.31;62.13;99676.51;1736520;80;25929;-68
2021/06/22 06:34:29;;;;;;;18.70;9.58;;;;;;;26.37;61.79;99672.61;1751805;80;27375;-68
2021/06/22 06:36:55;;;;;;;20.35;9.85;;;;;;;26.43;62.12;99673.05;1697679;81;26275;-67
2021/06/22 06:39:22;;;;;;;16.55;9.25;;;;;;;26.58;62.08;99678.23;1730779;80;26480;-67
2021/06/22 06:41:49;;;;;;;23.90;8.95;;;;;;;26.74;61.52;99667.17;1736482;80;26579;-66
2021/06/22 06:44:15;;;;;;;17.77;8.65;;;;;;;26.92;61.56;99668.11;1706626;82;25942;-65
2021/06/22 06:46:42;;;;;;;15.35;8.55;;;;;;;27.11;61.39;99662.25;1703124;82;27404;-66
2021/06/22 06:49:08;;;;;;;18.92;9.35;;;;;;;27.33;61.14;99663.09;1681733;83;26667;-66
2021/06/22 06:51:35;;;;;;;16.27;8.53;;;;;;;27.53;60.50;99665.09;1708815;82;26587;-66
2021/06/22 06:54:01;;;;;;;21.50;8.70;;;;;;;27.69;60.27;99654.51;1701263;82;27842;-66
2021/06/22 06:56:27;;;;;;;22.42;8.55;;;;;;;27.92;59.87;99665.97;1699340;81;25720;-66
2021/06/22 06:58:54;;;;;;;22.37;8.90;;;;;;;28.08;59.04;99657.36;1720386;80;27288;-66
2021/06/22 07:01:22;;;;;;;16.82;7.50;;;;;;;28.24;58.83;99657.84;1755561;80;26439;-66
2021/06/22 07:03:48;;;;;;;21.15;7.85;;;;;;;28.32;57.90;99648.83;1751316;80;26356;-66
2021/06/22 07:06:15;;;;;;;23.05;8.00;;;;;;;28.45;57.76;99647.43;1759452;79;26331;-67
2021/06/22 07:08:42;;;;;;;21.95;8.73;;;;;;;28.56;57.18;99648.48;1718448;81;25916;-67
2021/06/22 07:11:08;;;;;;;17.67;7.50;;;;;;;28.68;56.82;99653.23;1726224;80;29585;-66
2021/06/22 07:13:35;;;;;;;20.68;8.30;;;;;;;28.75;56.51;99657.78;1749148;80;26213;-65
2021/06/22 07:16:03;;;;;;;19.27;8.38;;;;;;;28.86;56.72;99653.23;1739778;80;25719;-65
2021/06/22 07:18:31;;;;;;;20.95;8.05;;;;;;;29.03;56.54;99653.25;1749570;80;25953;-67
2021/06/22 07:20:58;;;;;;;22.40;7.83;;;;;;;29.26;56.09;99660.25;1739767;80;25892;-65
2021/06/22 07:23:25;;;;;;;14.93;7.47;;;;;;;29.41;55.49;99659.27;1739534;80;27269;-69
2021/06/22 07:25:53;;;;;;;17.95;7.78;;;;;;;29.56;55.14;99655.97;1732980;80;26470;-71
2021/06/22 07:28:20;;;;;;;22.32;7.47;;;;;;;29.73;54.97;99655.11;1725813;81;26063;-68
2021/06/22 07:30:47;;;;;;;21.82;7.45;;;;;;;29.87;54.65;99658.02;1725647;81;25626;-71
2021/06/22 07:33:20;;;;;;;21.57;8.65;;;;;;;30.05;54.37;99656.69;1703086;80;25935;-73
2021/06/22 07:35:50;;;;;;;28.77;8.38;;;;;;;30.22;53.90;99663.42;1757859;79;27900;-72
2021/06/22 07:38:17;;;;;;;16.75;6.85;;;;;;;30.41;53.59;99649.73;1756568;79;25793;-74
2021/06/22 07:40:43;;;;;;;20.62;8.28;;;;;;;30.61;53.33;99658.28;1748777;79;25841;-74
2021/06/22 07:43:10;;;;;;;20.12;7.83;;;;;;;30.82;53.09;99662.17;1724086;81;26523;-73
2021/06/22 07:45:36;;;;;;;23.55;7.50;;;;;;;30.99;51.96;99664.07;1720694;81;25829;-71
2021/06/22 07:48:04;;;;;;;15.08;7.55;;;;;;;31.10;51.64;99667.19;1726207;81;28107;-72
2021/06/22 07:50:30;;;;;;;18.60;6.85;;;;;;;31.30;51.60;99665.94;1660551;83;26502;-72
2021/06/22 07:53:01;;;;;;;18.75;6.97;;;;;;;31.53;51.16;99672.91;1710525;81;25914;-75
2021/06/22 07:55:25;;;;;;;17.57;7.90;;;;;;;31.73;50.78;99666.17;1728108;81;26062;-73
2021/06/22 07:57:52;;;;;;;16.20;6.72;;;;;;;31.94;50.31;99660.83;1718664;81;26250;-73
2021/06/22 08:00:53;;;;;;;21.52;7.03;;;;;;;32.15;50.26;99660.47;1720448;80;27241;-72
2021/06/22 08:02:59;;;;;;;23.60;7.78;;;;;;;32.44;49.56;99659.05;1708785;81;25814;-71
2021/06/22 08:05:32;;;;;;;20.85;6.72;;;;;;;32.61;48.28;99660.84;1724802;80;26783;-74
2021/06/22 08:08:04;;;;;;;16.97;6.42;;;;;;;32.64;47.32;99668.28;1719798;80;25549;-78
2021/06/22 08:10:33;;;;;;;;;;;;;;;32.64;47.43;99664.09;1714055;81;25879;-72
2021/06/22 08:13:00;;;;;;;18.37;7.37;;;;;;;32.84;47.41;99672.66;1684976;83;27356;-70
2021/06/22 08:15:28;;;;;;;14.93;6.08;;;;;;;33.05;47.34;99668.59;1709242;81;26587;-69
2021/06/22 08:17:55;;;;;;;11.53;6.15;;;;;;;33.21;45.47;99660.41;1719263;81;26832;-69
2021/06/22 08:20:22;;;;;;;10.90;5.75;;;;;;;33.14;44.82;99665.73;1714438;80;26398;-66
2021/06/22 08:22:53;;;;;;;10.82;6.37;;;;;;;33.15;43.79;99674.30;1718427;81;25409;-68
2021/06/22 08:25:23;;;;;;;14.98;6.25;;;;;;;33.18;44.99;99666.34;1706158;81;28236;-67
2021/06/22 08:27:51;;;;;;;12.65;5.47;;;;;;;33.31;44.37;99671.05;1716449;81;25988;-67
2021/06/22 08:30:20;;;;;;;12.50;5.40;;;;;;;33.38;43.47;99674.09;1717799;81;25727;-68
2021/06/22 08:32:47;;;;;;;15.30;5.37;;;;;;;33.47;43.56;99680.23;1731503;80;26604;-66
2021/06/22 08:35:15;;;;;;;12.28;5.10;;;;;;;33.63;43.76;99676.20;1747301;80;25398;-66
2021/06/22 08:37:42;;;;;;;12.88;5.62;;;;;;;34.01;43.58;99688.56;1739025;80;27320;-67
2021/06/22 08:40:11;;;;;;;10.58;4.92;;;;;;;34.24;42.41;99684.86;1723559;81;25744;-68
2021/06/22 08:42:41;;;;;;;9.45;4.95;;;;;;;34.25;41.93;99691.24;1704292;81;25934;-68
2021/06/22 08:45:11;;;;;;;9.38;5.40;;;;;;;34.36;41.02;99692.02;1746728;80;25886;-66
2021/06/22 08:47:38;;;;;;;9.58;5.62;;;;;;;34.34;41.17;99688.30;1745974;79;25862;-65
2021/06/22 08:50:08;;;;;;;10.65;4.67;;;;;;;34.53;41.46;99683.23;1705717;81;27319;-65
2021/06/22 08:52:36;;;;;;;12.03;4.67;;;;;;;34.77;40.85;99694.28;1701605;82;25994;-66
2021/06/22 08:55:07;;;;;;;9.43;5.00;;;;;;;35.21;40.27;99729.64;1735249;80;26507;-66
2021/06/22 08:57:35;;;;;;;10.50;4.35;;;;;;;34.97;40.03;99699.13;1653102;83;26190;-66
2021/06/22 09:00:05;;;;;;;10.10;4.60;;;;;;;35.06;39.61;99697.41;1708177;81;31373;-66
2021/06/22 09:02:34;;;;;;;6.50;4.08;;;;;;;35.06;38.67;99704.43;1694234;81;27324;-66
2021/06/22 09:05:01;;;;;;;8.90;4.28;;;;;;;34.98;38.54;99705.51;1703710;81;25952;-66
2021/06/22 09:07:53;;;;;;;10.45;4.95;;;;;;;35.03;38.46;99711.83;1733942;80;26682;-65
2021/06/22 09:10:31;;;;;;;17.12;4.72;;;;;;;35.04;38.05;99719.61;1682083;83;26666;-64
2021/06/22 09:13:19;;;;;;;11.85;4.75;;;;;;;35.09;38.28;99711.27;1728245;81;25944;-66
2021/06/22 09:15:49;;;;;;;13.90;5.00;;;;;;;35.30;37.62;99712.67;1679426;83;27310;-64
2021/06/22 09:18:37;;;;;;;8.43;4.30;;;;;;;35.38;37.72;99712.98;1727563;81;25724;-65
2021/06/22 09:21:23;;;;;;;14.10;4.22;;;;;;;35.38;37.19;99706.72;1719394;81;26453;-65
2021/06/22 09:23:56;;;;;;;7.60;4.33;;;;;;;35.54;37.63;99701.91;1728271;81;26364;-64
2021/06/22 09:26:32;;;;;;;10.20;4.67;;;;;;;35.39;36.73;99701.25;1715075;81;25800;-65
2021/06/22 09:29:09;;;;;;;8.68;4.67;;;;;;;35.37;36.58;99708.01;1725225;80;27614;-65
2021/06/22 09:31:36;;;;;;;7.72;4.20;;;;;;;35.84;36.90;99722.80;1733171;80;25831;-65
2021/06/22 09:34:03;;;;;;;12.85;5.72;;;;;;;35.84;36.90;99722.80;1741028;79;26613;-65
2021/06/22 09:36:31;;;;;;;9.90;4.55;;;;;;;35.90;36.62;99712.34;1753770;80;27751;-66
2021/06/22 09:39:08;;;;;;;15.28;4.95;;;;;;;35.89;36.02;99708.62;1749380;79;25841;-66
2021/06/22 09:41:44;;;;;;;7.05;4.42;;;;;;;35.88;35.50;99700.06;1747528;80;29245;-65
2021/06/22 09:44:21;;;;;;;7.78;4.60;;;;;;;35.75;35.36;99714.52;1736750;80;25888;-66
2021/06/22 09:46:59;;;;;;;8.93;4.60;;;;;;;35.77;36.48;99705.59;1727626;80;25418;-65
2021/06/22 09:49:35;;;;;;;;;;;;;;;35.97;36.16;99694.88;1730650;81;25825;-64
2021/06/22 09:52:12;;;;;;;9.38;4.70;;;;;;;36.11;35.82;99701.63;1751051;80;26680;-64
2021/06/22 09:54:50;;;;;;;12.25;4.35;;;;;;;36.05;35.91;99701.59;1750538;80;27423;-64
2021/06/22 09:57:21;;;;;;;9.23;4.72;;;;;;;36.20;35.86;99695.80;1751563;80;25662;-64
2021/06/22 10:00:06;;;;;;;8.98;4.17;;;;;;;36.46;35.95;99693.69;1749008;80;26365;-65
2021/06/22 10:02:51;;;;;;;12.37;5.00;;;;;;;36.86;35.60;99698.12;1744549;80;25787;-64
2021/06/22 10:05:18;;;;;;;7.62;4.87;;;;;;;36.90;34.32;99684.58;1738089;79;25927;-66
2021/06/22 10:07:45;;;;;;;8.85;4.60;;;;;;;36.89;34.02;99690.72;1739564;80;27519;-66
2021/06/22 10:10:12;;;;;;;12.70;5.15;;;;;;;36.91;33.68;99681.87;1751396;80;26297;-65
2021/06/22 10:12:44;;;;;;;10.00;4.83;;;;;;;36.95;34.00;99680.21;1701492;81;25844;-65
2021/06/22 10:15:14;;;;;;;8.78;4.80;;;;;;;36.79;33.51;99680.30;1723474;80;26088;-66
2021/06/22 10:17:41;;;;;;;7.22;4.62;;;;;;;36.68;34.18;99684.44;1685592;82;26600;-66
2021/06/22 10:20:11;;;;;;;12.10;4.60;;;;;;;36.70;33.60;99688.33;1710954;80;27375;-66
2021/06/22 10:22:41;;;;;;;8.83;4.20;;;;;;;36.76;34.16;99680.69;1725916;80;25692;-66
2021/06/22 10:25:10;;;;;;;10.93;4.60;;;;;;;36.78;33.12;99678.12;1711968;81;26567;-66
2021/06/22 10:27:37;;;;;;;7.25;4.45;;;;;;;36.79;33.88;99684.52;1693009;83;26666;-66
2021/06/22 10:30:07;;;;;;;10.70;4.47;;;;;;;36.99;33.69;99679.34;1749688;80;25983;-66
2021/06/22 10:32:35;;;;;;;12.07;4.80;;;;;;;36.98;33.28;99676.39;1654583;83;27418;-65
2021/06/22 10:35:12;;;;;;;9.48;4.95;;;;;;;36.58;33.09;99685.31;1728997;80;25833;-65
2021/06/22 10:37:56;;;;;;;11.65;4.92;;;;;;;36.57;33.63;99666.86;1752751;80;25894;-67
2021/06/22 10:40:26;;;;;;;10.78;4.87;;;;;;;36.81;33.91;99677.12;1719652;80;26252;-67
2021/06/22 10:43:00;;;;;;;13.60;5.10;;;;;;;37.14;33.57;99679.90;1725270;80;26535;-67
2021/06/22 10:45:27;;;;;;;10.05;5.15;;;;;;;37.17;33.23;99677.47;1691909;82;27365;-67
2021/06/22 10:48:00;;;;;;;9.08;4.75;;;;;;;36.92;32.70;99672.80;1742564;80;25919;-67
2021/06/22 10:50:30;;;;;;;11.25;5.17;;;;;;;36.73;33.47;99671.84;1693600;82;25705;-66
2021/06/22 10:53:01;;;;;;;8.68;4.50;;;;;;;36.92;34.01;99672.15;1743945;80;26635;-67
2021/06/22 10:55:44;;;;;;;14.75;5.10;;;;;;;37.30;33.77;99669.95;1753140;80;25691;-68
2021/06/22 10:58:14;;;;;;;8.60;4.80;;;;;;;37.56;32.79;99661.28;1746792;80;28037;-67
2021/06/22 11:00:52;;;;;;;11.65;5.30;;;;;;;37.63;32.37;99659.20;1673734;83;26654;-67
2021/06/22 11:03:27;;;;;;;8.50;5.03;;;;;;;37.63;32.81;99665.64;1747779;80;25852;-67
2021/06/22 11:06:15;;;;;;;15.18;5.70;;;;;;;37.36;32.32;99655.23;1738017;80;26259;-67
2021/06/22 11:08:43;;;;;;;11.68;5.30;;;;;;;37.31;32.68;99653.17;1710553;81;25798;-67
2021/06/22 11:11:15;;;;;;;11.50;5.12;;;;;;;37.17;32.06;99642.86;1708645;81;28123;-67
2021/06/22 11:13:58;;;;;;;11.88;5.40;;;;;;;36.64;31.95;99641.81;1700639;82;25859;-67
2021/06/22 11:16:31;;;;;;;13.03;5.60;;;;;;;36.12;32.16;99643.44;1727709;80;26632;-67
2021/06/22 11:19:10;;;;;;;13.55;5.65;;;;;;;35.97;33.18;99627.36;1730358;79;25735;-67
2021/06/22 11:21:49;;;;;;;9.10;5.22;;;;;;;35.92;33.56;99628.86;1739777;80;25508;-66
2021/06/22 11:24:20;;;;;;;11.85;5.95;;;;;;;36.14;33.66;99619.02;1751628;79;28521;-66
2021/06/22 11:27:00;;;;;;;10.20;5.83;;;;;;;36.35;33.02;99634.50;1699565;81;27126;-67
2021/06/22 11:29:33;;;;;;;10.08;5.58;;;;;;;35.80;32.51;99633.63;1629665;85;26563;-67
2021/06/22 11:32:00;;;;;;;13.72;5.67;;;;;;;35.42;33.00;99634.84;1646231;84;26001;-67
2021/06/22 11:34:54;;;;;;;8.58;5.70;;;;;;;35.14;33.00;99638.11;1620610;85;25950;-67
2021/06/22 11:37:24;;;;;;;10.45;5.55;;;;;;;34.86;33.47;99633.61;1630857;85;27369;-67
2021/06/22 11:40:14;;;;;;;15.23;6.12;;;;;;;35.02;34.64;99636.45;1608561;86;26940;-66
2021/06/22 11:42:43;;;;;;;8.93;5.72;;;;;;;35.13;34.61;99631.73;1603580;87;25865;-66
2021/06/22 11:45:21;;;;;;;25.97;7.65;;;;;;;35.42;34.95;99623.60;1641489;84;26635;-67
2021/06/22 11:47:49;;;;;;;10.60;6.03;;;;;;;35.88;35.25;99624.11;1632550;86;25901;-66
2021/06/22 11:50:25;;;;;;;14.30;5.95;;;;;;;36.49;34.69;99613.70;1631805;85;27357;-67
2021/06/22 11:53:02;;;;;;;10.65;5.80;;;;;;;36.87;33.90;99622.19;1647280;84;25797;-66
2021/06/22 11:55:31;;;;;;;14.58;6.12;;;;;;;37.13;33.00;99624.80;1633099;85;25827;-67
2021/06/22 11:57:59;;;;;;;12.07;5.92;;;;;;;37.11;32.35;99623.12;1621984;85;26436;-67
2021/06/22 12:00:29;;;;;;;9.37;5.77;;;;;;;37.13;32.82;99615.58;1646575;85;26820;-66
2021/06/22 12:03:02;;;;;;;10.43;5.80;;;;;;;37.34;32.66;99605.64;1643889;84;27472;-67
2021/06/22 12:05:34;;;;;;;12.85;5.95;;;;;;;37.59;32.32;99621.39;1624943;84;25867;-67
2021/06/22 12:08:04;;;;;;;11.60;6.25;;;;;;;37.69;31.64;99619.11;1721445;81;25814;-66
2021/06/22 12:10:50;;;;;;;14.93;5.60;;;;;;;37.59;31.70;99614.98;1750415;80;25749;-67
2021/06/22 12:13:37;;;;;;;9.05;5.92;;;;;;;37.48;31.61;99622.17;1749075;80;26181;-66
2021/06/22 12:16:23;;;;;;;8.98;6.00;;;;;;;37.34;31.45;99616.92;1749593;80;27328;-67
2021/06/22 12:18:54;;;;;;;14.53;6.53;;;;;;;37.18;31.92;99617.02;1744798;80;25919;-67
2021/06/22 12:21:21;;;;;;;10.00;5.20;;;;;;;37.43;32.03;99613.07;1763222;80;26454;-67
2021/06/22 12:23:48;;;;;;;9.88;5.67;;;;;;;37.63;31.73;99611.25;1735985;80;26383;-67
2021/06/22 12:26:16;;;;;;;9.80;5.65;;;;;;;37.49;31.19;99612.41;1759618;79;26130;-68
2021/06/22 12:28:43;;;;;;;8.15;5.08;;;;;;;37.09;31.41;99614.42;1762482;79;27347;-68
2021/06/22 12:31:12;;;;;;;11.68;5.75;;;;;;;37.08;31.97;99605.83;1757216;80;25953;-65
2021/06/22 12:33:43;;;;;;;13.03;5.67;;;;;;;37.22;31.66;99599.84;1752276;79;25866;-67
2021/06/22 12:36:18;;;;;;;8.43;5.20;;;;;;;37.21;31.50;99602.55;1757812;79;26271;-68
2021/06/22 12:38:44;;;;;;;9.13;6.30;;;;;;;36.99;31.60;99609.66;1744733;80;25920;-67
2021/06/22 12:41:12;;;;;;;;;;;;;;;36.52;31.65;99593.74;1755470;80;28085;-67
2021/06/22 12:43:49;;;;;;;10.80;5.60;;;;;;;36.27;32.11;99591.99;1729849;81;26012;-66
2021/06/22 12:46:22;;;;;;;10.90;5.72;;;;;;;36.13;32.56;99597.13;1713446;81;25770;-67
2021/06/22 12:48:56;;;;;;;9.20;6.72;;;;;;;36.25;33.21;99601.59;1687486;82;25893;-67
2021/06/22 12:51:24;;;;;;;13.08;5.92;;;;;;;36.56;33.32;99600.56;1724489;80;25741;-68
2021/06/22 12:53:52;;;;;;;10.38;5.20;;;;;;;36.78;33.05;99606.91;1731629;80;27308;-68
2021/06/22 12:56:23;;;;;;;15.48;6.90;;;;;;;36.58;32.31;99599.41;1737360;80;26632;-67
2021/06/22 12:58:57;;;;;;;11.63;5.95;;;;;;;36.39;31.98;99597.03;1742332;80;26372;-68
2021/06/22 13:01:39;;;;;;;7.10;5.45;;;;;;;36.34;32.29;99589.34;1726380;80;26217;-67
2021/06/22 13:04:11;;;;;;;16.52;5.97;;;;;;;36.34;32.35;99589.34;1691752;81;26187;-66
2021/06/22 13:06:41;;;;;;;9.93;5.53;;;;;;;36.22;32.50;99592.73;1702070;81;28041;-72
2021/06/22 13:09:15;;;;;;;12.28;5.37;;;;;;;36.00;32.74;99594.77;1694245;81;26653;-72
2021/06/22 13:11:54;;;;;;;10.60;5.67;;;;;;;35.93;33.50;99587.42;1723784;81;25795;-77
2021/06/22 13:14:32;;;;;;;12.68;6.03;;;;;;;35.78;33.21;99596.80;1750233;80;26481;-71
2021/06/22 13:17:08;;;;;;;9.23;5.78;;;;;;;35.61;33.73;99598.70;1695711;82;25924;-70
2021/06/22 13:19:49;;;;;;;8.60;5.83;;;;;;;35.43;33.41;99602.64;1700698;82;28096;-70
2021/06/22 13:22:23;;;;;;;11.35;5.90;;;;;;;35.49;33.67;99595.03;1719451;81;25877;-66
2021/06/22 13:24:56;;;;;;;13.10;6.40;;;;;;;35.60;33.65;99604.17;1687372;83;26794;-69
2021/06/22 13:27:32;;;;;;;16.12;6.60;;;;;;;35.58;33.51;99606.08;1688704;81;25905;-64
2021/06/22 13:30:24;;;;;;;10.72;6.10;;;;;;;35.54;33.50;99606.31;1690798;81;26005;-66
2021/06/22 13:33:00;;;;;;;8.73;5.60;;;;;;;35.41;33.42;99595.34;1704305;82;26614;-68
2021/06/22 13:35:37;;;;;;;18.20;6.97;;;;;;;35.12;33.90;99606.93;1693793;83;26722;-67
2021/06/22 13:38:12;;;;;;;10.82;5.75;;;;;;;34.88;34.20;99602.99;1662384;84;26747;-66
2021/06/22 13:41:03;;;;;;;9.88;5.87;;;;;;;34.81;34.47;99607.64;1656949;84;25925;-66
2021/06/22 13:43:44;;;;;;;10.63;5.80;;;;;;;34.69;34.70;99614.50;1668600;83;25953;-67
2021/06/22 13:46:14;;;;;;;12.58;6.03;;;;;;;34.53;34.68;99615.84;1679302;82;27542;-66
2021/06/22 13:48:49;;;;;;;10.90;6.28;;;;;;;34.25;34.70;99604.25;1703002;82;26159;-68
2021/06/22 13:51:32;;;;;;;12.25;6.42;;;;;;;34.04;34.95;99608.41;1716356;81;25768;-68
2021/06/22 13:54:13;;;;;;;13.28;6.53;;;;;;;33.82;35.34;99613.70;1689116;82;25840;-68
2021/06/22 13:56:42;;;;;;;10.78;6.15;;;;;;;33.74;35.61;99623.76;1738571;80;26517;-67
2021/06/22 13:59:09;;;;;;;;;;;;;;;33.50;35.80;99616.97;1718781;81;27408;-67
2021/06/22 14:01:35;;;;;;;12.33;6.12;;;;;;;33.44;36.03;99616.73;1738186;80;25851;-69
2021/06/22 14:04:02;;;;;;;11.40;6.83;;;;;;;33.41;36.28;99618.48;1744040;80;26134;-68
2021/06/22 14:06:30;;;;;;;11.05;5.97;;;;;;;33.39;36.55;99618.20;1678452;83;25863;-69
2021/06/22 14:08:57;;;;;;;10.95;6.87;;;;;;;33.45;37.24;99615.48;1700010;82;26093;-68
2021/06/22 14:11:24;;;;;;;13.38;6.17;;;;;;;33.45;37.24;99615.48;1723826;80;27421;-67
2021/06/22 14:13:53;;;;;;;15.30;7.00;;;;;;;33.48;36.96;99618.09;1744686;79;25894;-68
2021/06/22 14:16:20;;;;;;;;;;;;;;;33.60;37.18;99621.09;1751255;80;25905;-67
2021/06/22 14:18:46;;;;;;;17.77;7.85;;;;;;;33.63;37.58;99618.09;1758368;79;27876;-66
2021/06/22 14:21:13;;;;;;;11.75;6.47;;;;;;;33.74;37.61;99620.31;1689518;81;25835;-67
2021/06/22 14:23:41;;;;;;;10.60;6.90;;;;;;;33.77;37.37;99624.19;1760677;80;27306;-64
2021/06/22 14:26:08;;;;;;;18.55;7.15;;;;;;;33.87;37.67;99646.66;1743697;80;26554;-66
2021/06/22 14:28:38;;;;;;;19.12;7.33;;;;;;;33.68;37.98;99626.48;1692872;82;26610;-65
2021/06/22 14:31:07;;;;;;;15.70;7.20;;;;;;;33.52;38.04;99619.30;1695080;82;26754;-67
2021/06/22 14:33:34;;;;;;;20.60;8.15;;;;;;;33.46;38.79;99626.22;1701250;82;26108;-68
2021/06/22 14:36:05;;;;;;;19.57;7.85;;;;;;;33.34;39.24;99620.89;1669475;82;28393;-66
2021/06/22 14:38:32;;;;;;;16.80;8.20;;;;;;;33.27;39.43;99622.84;1734863;80;26011;-67
2021/06/22 14:41:06;;;;;;;13.65;7.60;;;;;;;33.06;39.48;99604.33;1732135;80;26153;-69
2021/06/22 14:43:35;;;;;;;17.95;7.65;;;;;;;33.06;39.55;99623.94;1730281;80;25873;-71
2021/06/22 14:46:06;;;;;;;11.88;7.80;;;;;;;32.99;39.81;99619.48;1743561;80;25794;-67
2021/06/22 14:48:35;;;;;;;16.97;7.97;;;;;;;32.92;40.36;99610.06;1735372;80;29616;-66
2021/06/22 14:51:06;;;;;;;13.35;8.00;;;;;;;32.82;40.18;99612.80;1747463;80;26134;-64
2021/06/22 14:53:40;;;;;;;9.60;7.40;;;;;;;32.73;40.72;99608.05;1756257;79;25806;-65
2021/06/22 14:56:01;;;;;;;;;;;;;;;32.62;40.77;99611.38;1723873;81;25981;-64
2021/06/22 14:58:27;;;;;;;10.25;7.47;;;;;;;32.54;41.62;99615.79;1709863;81;25902;-66
2021/06/22 15:01:00;;;;;;;16.00;8.80;;;;;;;32.48;41.48;99621.88;1717431;80;27276;-65
2021/06/22 15:03:29;;;;;;;13.10;7.60;;;;;;;32.47;42.09;99616.12;1723445;81;25911;-63
2021/06/22 15:06:02;;;;;;;17.32;7.72;;;;;;;32.42;41.85;99615.38;1744781;80;25931;-64
2021/06/22 15:08:29;;;;;;;16.10;8.43;;;;;;;32.35;42.16;99618.70;1730003;80;26453;-64
2021/06/22 15:10:55;;;;;;;12.53;8.70;;;;;;;32.32;42.18;99617.48;1736067;80;26370;-65
2021/06/22 15:13:22;;;;;;;15.45;8.35;;;;;;;32.29;42.28;99617.03;1737278;80;27406;-64
2021/06/22 15:15:49;;;;;;;17.75;8.28;;;;;;;32.22;42.32;99612.56;1748489;80;25828;-64
2021/06/22 15:18:15;;;;;;;8.23;7.35;;;;;;;32.20;43.03;99611.64;1726823;80;25938;-64
2021/06/22 15:20:42;;;;;;;13.38;8.43;;;;;;;32.10;42.91;99610.14;1743561;80;26986;-64
2021/06/22 15:23:10;;;;;;;14.83;9.05;;;;;;;31.98;42.99;99606.28;1727840;80;26222;-65
2021/06/22 15:25:38;;;;;;;18.42;8.63;;;;;;;31.95;43.39;99607.86;1745820;80;27353;-63
2021/06/22 15:28:05;;;;;;;14.03;7.67;;;;;;;31.93;43.44;99614.55;1756070;79;25560;-63
2021/06/22 15:30:32;;;;;;;18.45;8.63;;;;;;;31.98;43.69;99628.66;1697377;82;26160;-63
2021/06/22 15:32:59;;;;;;;13.15;8.23;;;;;;;32.01;44.19;99636.11;1747704;80;25791;-63
2021/06/22 15:35:25;;;;;;;11.95;8.45;;;;;;;32.08;44.33;99638.42;1737287;80;26026;-63
2021/06/22 15:37:53;;;;;;;15.83;9.33;;;;;;;32.11;44.46;99641.67;1729917;80;27279;-63
2021/06/22 15:40:23;;;;;;;14.85;8.53;;;;;;;32.16;44.52;99643.82;1746571;79;26393;-63
2021/06/22 15:42:52;;;;;;;13.10;9.05;;;;;;;32.22;44.52;99651.73;1738967;80;25887;-64
2021/06/22 15:45:21;;;;;;;16.70;8.78;;;;;;;32.19;44.08;99644.28;1732911;80;26007;-64
2021/06/22 15:47:49;;;;;;;14.83;9.23;;;;;;;32.09;43.74;99644.94;1747936;80;26246;-64
2021/06/22 15:50:22;;;;;;;14.35;8.53;;;;;;;31.95;43.72;99640.78;1739160;80;27293;-62
2021/06/22 15:52:49;;;;;;;15.80;9.23;;;;;;;31.89;44.07;99639.09;1727868;81;25911;-62
2021/06/22 15:55:18;;;;;;;17.25;8.50;;;;;;;31.72;44.14;99636.69;1736835;80;25896;-62
2021/06/22 15:57:52;;;;;;;;;;;;;;;31.61;44.35;99635.01;1717402;81;25855;-62
2021/06/22 16:00:25;;;;;;;10.85;7.55;;;;;;;31.44;44.63;99635.95;1666661;83;25932;-67
2021/06/22 16:02:52;;;;;;;15.05;7.53;;;;;;;31.25;44.31;99645.75;1654980;83;27306;-66
2021/06/22 16:05:19;;;;;;;18.65;8.55;;;;;;;31.11;44.00;99665.95;1718312;81;25866;-66
2021/06/22 16:07:47;;;;;;;20.72;10.15;;;;;;;30.89;46.38;99694.76;1711625;81;26693;-64
2021/06/22 16:14:13;;;;;;;14.43;9.83;;;;;;;29.63;49.13;99728.14;1717562;81;26333;-66
2021/06/22 16:16:40;;;;;;;17.57;10.88;;;;;;;28.69;52.33;99741.67;1719850;81;27413;-66
2021/06/22 16:19:06;;;;;;;16.25;9.85;;;;;;;28.05;53.41;99780.54;1730306;80;25925;-65
2021/06/22 16:21:33;;;;;;;25.90;10.28;;;;;;;27.18;53.63;99792.52;1746990;80;25876;-64
2021/06/22 16:24:01;;;;;;;15.40;10.23;;;;;;;26.54;55.01;99823.91;1708604;80;25944;-64
2021/06/22 16:26:29;;;;;;;22.25;13.05;;;;;;;26.10;56.52;99826.02;1748564;80;25784;-63
2021/06/22 16:28:55;;;;;;;17.02;11.18;;;;;;;25.65;57.93;99750.31;1729226;81;27424;-63
2021/06/22 16:31:23;;;;;;;13.62;11.10;;;;;;;25.13;61.35;99770.97;1710748;81;27254;-64
2021/06/22 16:33:50;;;;;;;17.82;11.93;;;;;;;24.64;60.06;99807.31;1699549;81;25830;-63
2021/06/22 16:36:16;;;;;;;18.60;12.68;;;;;;;24.39;61.38;99818.67;1738314;80;26385;-64
2021/06/22 16:38:43;;;;;;;20.45;13.25;;;;;;;24.24;62.53;99857.52;1708155;81;26510;-63
2021/06/22 16:41:10;;;;;;;19.00;13.70;;;;;;;24.14;64.06;99874.23;1698202;81;27340;-63
2021/06/22 16:43:36;;;;;;;17.50;13.25;;;;;;;23.96;64.64;99915.88;1732698;80;25946;-63
2021/06/22 16:46:04;;;;;;;19.87;12.37;;;;;;;23.80;65.07;99923.27;1709000;81;26730;-60
2021/06/22 16:48:32;;;;;;;15.83;12.35;;;;;;;23.69;66.16;99953.14;1726377;80;25947;-63
2021/06/22 16:50:58;;;;;;;18.57;12.13;;;;;;;23.60;66.49;99968.59;1720558;81;25946;-62
2021/06/22 16:53:25;;;;;;;16.02;11.60;;;;;;;23.48;66.85;99965.13;1731279;80;28106;-62
2021/06/22 16:55:52;;;;;;;20.75;14.18;;;;;;;23.39;67.90;99941.94;1735023;80;25911;-62
2021/06/22 16:58:18;;;;;;;18.67;13.40;;;;;;;23.34;68.42;99914.77;1743532;80;25897;-62
2021/06/22 17:00:45;;;;;;;21.48;12.98;;;;;;;23.33;69.11;99925.03;1743880;80;26727;-63
2021/06/22 17:03:12;;;;;;;20.88;12.68;;;;;;;23.26;69.39;99943.80;1750530;79;25929;-63
2021/06/22 17:05:50;;;;;;;15.55;12.00;;;;;;;23.19;69.46;99902.47;1753240;80;27444;-63
2021/06/22 17:08:21;;;;;;;14.85;11.18;;;;;;;23.10;69.51;99871.20;1747422;80;25748;-62
2021/06/22 17:10:49;;;;;;;12.15;9.95;;;;;;;22.99;69.44;99852.52;1723296;81;25874;-62
2021/06/22 17:13:17;;;;;;;16.60;10.70;;;;;;;22.89;69.58;99883.70;1738370;80;26288;-62
2021/06/22 17:15:44;;;;;;;19.35;13.10;;;;;;;22.78;69.57;99887.11;1730770;80;25572;-62
2021/06/22 17:18:12;;;;;;;16.62;11.18;;;;;;;22.71;70.15;99891.48;1730054;80;27284;-62